sensor_id;sensor_type;location;lat;lon;timestamp;temperature;humidity
52387;DHT22;38317;53.084;6.960;2022-07-23T00:01:23;15.20;99.90
52387;DHT22;38317;53.084;6.960;2022-07-23T00:03:49;15.20;99.90
52387;DHT22;38317;53.084;6.960;2022-07-23T00:06:15;15.20;99.90
52387;DHT22;38317;53.084;6.960;2022-07-23T00:08:41;15.10;99.90
52387;DHT22;38317;53.084;6.960;2022-07-23T00:11:07;15.10;99.90
52387;DHT22;38317;53.084;6.960;2022-07-23T00:13:33;15.10;99.90
52387;DHT22;38317;53.084;6.960;2022-07-23T00:15:59;15.10;99.90
52387;DHT22;38317;53.084;6.960;2022-07-23T00:18:25;15.10;99.90
52387;DHT22;38317;53.084;6.960;2022-07-23T00:20:51;15.10;99.90
52387;DHT22;38317;53.084;6.960;2022-07-23T00:23:17;15.10;99.90
52387;DHT22;38317;53.084;6.960;2022-07-23T00:25:43;15.10;99.90
52387;DHT22;38317;53.084;6.960;2022-07-23T00:28:10;15.10;99.90
52387;DHT22;38317;53.084;6.960;2022-07-23T00:30:36;15.10;99.90
52387;DHT22;38317;53.084;6.960;2022-07-23T00:33:05;15.10;99.90
52387;DHT22;38317;53.084;6.960;2022-07-23T00:35:34;15.10;99.90
52387;DHT22;38317;53.084;6.960;2022-07-23T00:38:01;15.10;99.90
52387;DHT22;38317;53.084;6.960;2022-07-23T00:40:28;15.00;99.90
52387;DHT22;38317;53.084;6.960;2022-07-23T00:42:54;15.00;99.90
52387;DHT22;38317;53.084;6.960;2022-07-23T00:45:20;14.90;99.90
52387;DHT22;38317;53.084;6.960;2022-07-23T00:47:46;14.90;99.90
52387;DHT22;38317;53.084;6.960;2022-07-23T00:50:12;14.90;99.90
52387;DHT22;38317;53.084;6.960;2022-07-23T00:52:39;14.80;99.90
52387;DHT22;38317;53.084;6.960;2022-07-23T00:55:06;14.70;99.90
52387;DHT22;38317;53.084;6.960;2022-07-23T00:57:32;14.70;99.90
52387;DHT22;38317;53.084;6.960;2022-07-23T00:59:58;14.60;99.90
52387;DHT22;38317;53.084;6.960;2022-07-23T01:02:27;14.60;99.90
52387;DHT22;38317;53.084;6.960;2022-07-23T01:04:53;14.50;99.90
52387;DHT22;38317;53.084;6.960;2022-07-23T01:07:20;14.50;99.90
52387;DHT22;38317;53.084;6.960;2022-07-23T01:09:46;14.40;99.90
52387;DHT22;38317;53.084;6.960;2022-07-23T01:12:12;14.40;99.90
52387;DHT22;38317;53.084;6.960;2022-07-23T01:14:38;14.30;99.90
52387;DHT22;38317;53.084;6.960;2022-07-23T01:17:04;14.30;99.90
52387;DHT22;38317;53.084;6.960;2022-07-23T01:19:30;14.30;99.90
52387;DHT22;38317;53.084;6.960;2022-07-23T01:21:57;14.20;99.90
52387;DHT22;38317;53.084;6.960;2022-07-23T01:24:24;14.20;99.90
52387;DHT22;38317;53.084;6.960;2022-07-23T01:26:50;14.10;99.90
52387;DHT22;38317;53.084;6.960;2022-07-23T01:29:16;14.10;99.90
52387;DHT22;38317;53.084;6.960;2022-07-23T01:31:42;14.00;99.90
52387;DHT22;38317;53.084;6.960;2022-07-23T01:34:09;14.00;99.90
52387;DHT22;38317;53.084;6.960;2022-07-23T01:36:36;14.00;99.90
52387;DHT22;38317;53.084;6.960;2022-07-23T01:39:03;14.00;99.90
52387;DHT22;38317;53.084;6.960;2022-07-23T01:41:30;13.90;99.90
52387;DHT22;38317;53.084;6.960;2022-07-23T01:43:56;13.90;99.90
52387;DHT22;38317;53.084;6.960;2022-07-23T01:46:21;13.90;99.90
52387;DHT22;38317;53.084;6.960;2022-07-23T01:48:47;13.90;99.90
52387;DHT22;38317;53.084;6.960;2022-07-23T01:51:13;13.90;99.90
52387;DHT22;38317;53.084;6.960;2022-07-23T01:53:38;13.80;99.90
52387;DHT22;38317;53.084;6.960;2022-07-23T01:56:04;13.90;99.90
52387;DHT22;38317;53.084;6.960;2022-07-23T01:58:30;13.80;99.90
52387;DHT22;38317;53.084;6.960;2022-07-23T02:00:56;13.80;99.90
52387;DHT22;38317;53.084;6.960;2022-07-23T02:03:22;13.80;99.90
52387;DHT22;38317;53.084;6.960;2022-07-23T02:05:48;13.80;99.90
52387;DHT22;38317;53.084;6.960;2022-07-23T02:08:14;13.80;99.90
52387;DHT22;38317;53.084;6.960;2022-07-23T02:10:40;13.80;99.90
52387;DHT22;38317;53.084;6.960;2022-07-23T02:13:06;13.70;99.90
52387;DHT22;38317;53.084;6.960;2022-07-23T02:15:32;13.70;99.90
52387;DHT22;38317;53.084;6.960;2022-07-23T02:17:57;13.70;99.90
52387;DHT22;38317;53.084;6.960;2022-07-23T02:20:24;13.60;99.90
52387;DHT22;38317;53.084;6.960;2022-07-23T02:22:50;13.60;99.90
52387;DHT22;38317;53.084;6.960;2022-07-23T02:25:16;13.60;99.90
52387;DHT22;38317;53.084;6.960;2022-07-23T02:27:42;13.50;99.90
52387;DHT22;38317;53.084;6.960;2022-07-23T02:30:08;13.50;99.90
52387;DHT22;38317;53.084;6.960;2022-07-23T02:32:35;13.40;99.90
52387;DHT22;38317;53.084;6.960;2022-07-23T02:35:02;13.40;99.90
52387;DHT22;38317;53.084;6.960;2022-07-23T02:37:28;13.40;99.90
52387;DHT22;38317;53.084;6.960;2022-07-23T02:39:54;13.40;99.90
52387;DHT22;38317;53.084;6.960;2022-07-23T02:42:20;13.30;99.90
52387;DHT22;38317;53.084;6.960;2022-07-23T02:44:45;13.30;99.90
52387;DHT22;38317;53.084;6.960;2022-07-23T02:47:11;13.30;99.90
52387;DHT22;38317;53.084;6.960;2022-07-23T02:49:37;13.30;99.90
52387;DHT22;38317;53.084;6.960;2022-07-23T02:52:03;13.30;99.90
52387;DHT22;38317;53.084;6.960;2022-07-23T02:54:29;13.30;99.90
52387;DHT22;38317;53.084;6.960;2022-07-23T02:56:55;13.30;99.90
52387;DHT22;38317;53.084;6.960;2022-07-23T02:59:20;13.20;99.90
52387;DHT22;38317;53.084;6.960;2022-07-23T03:01:47;13.20;99.90
52387;DHT22;38317;53.084;6.960;2022-07-23T03:04:12;13.30;99.90
52387;DHT22;38317;53.084;6.960;2022-07-23T03:06:38;13.20;99.90
52387;DHT22;38317;53.084;6.960;2022-07-23T03:09:04;13.20;99.90
52387;DHT22;38317;53.084;6.960;2022-07-23T03:11:30;13.20;99.90
52387;DHT22;38317;53.084;6.960;2022-07-23T03:13:56;13.20;99.90
52387;DHT22;38317;53.084;6.960;2022-07-23T03:16:22;13.10;99.90
52387;DHT22;38317;53.084;6.960;2022-07-23T03:18:48;13.10;99.90
52387;DHT22;38317;53.084;6.960;2022-07-23T03:21:13;13.10;99.90
52387;DHT22;38317;53.084;6.960;2022-07-23T03:23:39;13.10;99.90
52387;DHT22;38317;53.084;6.960;2022-07-23T03:26:05;13.00;99.90
52387;DHT22;38317;53.084;6.960;2022-07-23T03:28:31;13.00;99.90
52387;DHT22;38317;53.084;6.960;2022-07-23T03:30:56;13.00;99.90
52387;DHT22;38317;53.084;6.960;2022-07-23T03:33:22;13.00;99.90
52387;DHT22;38317;53.084;6.960;2022-07-23T03:35:48;13.00;99.90
52387;DHT22;38317;53.084;6.960;2022-07-23T03:38:14;12.90;99.90
52387;DHT22;38317;53.084;6.960;2022-07-23T03:40:40;12.90;99.90
52387;DHT22;38317;53.084;6.960;2022-07-23T03:43:06;12.90;99.90
52387;DHT22;38317;53.084;6.960;2022-07-23T03:45:32;12.90;99.90
52387;DHT22;38317;53.084;6.960;2022-07-23T03:47:58;12.90;99.90
52387;DHT22;38317;53.084;6.960;2022-07-23T03:50:24;12.90;99.90
52387;DHT22;38317;53.084;6.960;2022-07-23T03:52:50;12.80;99.90
52387;DHT22;38317;53.084;6.960;2022-07-23T03:55:16;12.80;99.90
52387;DHT22;38317;53.084;6.960;2022-07-23T03:57:41;12.80;99.90
52387;DHT22;38317;53.084;6.960;2022-07-23T04:00:09;12.80;99.90
52387;DHT22;38317;53.084;6.960;2022-07-23T04:02:36;12.80;99.90
52387;DHT22;38317;53.084;6.960;2022-07-23T04:05:02;12.80;99.90
52387;DHT22;38317;53.084;6.960;2022-07-23T04:07:28;12.80;99.90
52387;DHT22;38317;53.084;6.960;2022-07-23T04:09:53;12.80;99.90
52387;DHT22;38317;53.084;6.960;2022-07-23T04:12:19;12.80;99.90
52387;DHT22;38317;53.084;6.960;2022-07-23T04:14:45;12.80;99.90
52387;DHT22;38317;53.084;6.960;2022-07-23T04:17:11;12.80;99.90
52387;DHT22;38317;53.084;6.960;2022-07-23T04:19:37;12.80;99.90
52387;DHT22;38317;53.084;6.960;2022-07-23T04:22:07;12.70;99.90
52387;DHT22;38317;53.084;6.960;2022-07-23T04:24:34;12.80;99.90
52387;DHT22;38317;53.084;6.960;2022-07-23T04:27:00;12.80;99.90
52387;DHT22;38317;53.084;6.960;2022-07-23T04:29:26;12.80;99.90
52387;DHT22;38317;53.084;6.960;2022-07-23T04:31:52;12.90;99.90
52387;DHT22;38317;53.084;6.960;2022-07-23T04:34:18;12.90;99.90
52387;DHT22;38317;53.084;6.960;2022-07-23T04:36:43;12.90;99.90
52387;DHT22;38317;53.084;6.960;2022-07-23T04:39:10;13.00;99.90
52387;DHT22;38317;53.084;6.960;2022-07-23T04:41:35;13.00;99.90
52387;DHT22;38317;53.084;6.960;2022-07-23T04:44:02;13.00;99.90
52387;DHT22;38317;53.084;6.960;2022-07-23T04:46:28;13.00;99.90
52387;DHT22;38317;53.084;6.960;2022-07-23T04:48:54;13.00;99.90
52387;DHT22;38317;53.084;6.960;2022-07-23T04:51:20;13.00;99.90
52387;DHT22;38317;53.084;6.960;2022-07-23T04:53:45;13.10;99.90
52387;DHT22;38317;53.084;6.960;2022-07-23T04:56:11;13.10;99.90
52387;DHT22;38317;53.084;6.960;2022-07-23T04:58:37;13.10;99.90
52387;DHT22;38317;53.084;6.960;2022-07-23T05:01:03;13.10;99.90
52387;DHT22;38317;53.084;6.960;2022-07-23T05:03:29;13.20;99.90
52387;DHT22;38317;53.084;6.960;2022-07-23T05:05:55;13.20;99.90
52387;DHT22;38317;53.084;6.960;2022-07-23T05:08:20;13.20;99.90
52387;DHT22;38317;53.084;6.960;2022-07-23T05:10:46;13.30;99.90
52387;DHT22;38317;53.084;6.960;2022-07-23T05:13:14;13.30;99.90
52387;DHT22;38317;53.084;6.960;2022-07-23T05:15:41;13.30;99.90
52387;DHT22;38317;53.084;6.960;2022-07-23T05:18:06;13.30;99.90
52387;DHT22;38317;53.084;6.960;2022-07-23T05:20:32;13.40;99.90
52387;DHT22;38317;53.084;6.960;2022-07-23T05:22:58;13.40;99.90
52387;DHT22;38317;53.084;6.960;2022-07-23T05:25:24;13.40;99.90
52387;DHT22;38317;53.084;6.960;2022-07-23T05:27:49;13.50;99.90
52387;DHT22;38317;53.084;6.960;2022-07-23T05:30:15;13.50;99.90
52387;DHT22;38317;53.084;6.960;2022-07-23T05:32:41;13.50;99.90
52387;DHT22;38317;53.084;6.960;2022-07-23T05:35:07;13.60;99.90
52387;DHT22;38317;53.084;6.960;2022-07-23T05:37:33;13.60;99.90
52387;DHT22;38317;53.084;6.960;2022-07-23T05:40:07;13.60;99.90
52387;DHT22;38317;53.084;6.960;2022-07-23T05:42:34;13.70;99.90
52387;DHT22;38317;53.084;6.960;2022-07-23T05:45:00;13.80;99.90
52387;DHT22;38317;53.084;6.960;2022-07-23T05:47:25;13.90;99.90
52387;DHT22;38317;53.084;6.960;2022-07-23T05:49:51;13.90;99.90
52387;DHT22;38317;53.084;6.960;2022-07-23T05:52:17;14.00;99.90
52387;DHT22;38317;53.084;6.960;2022-07-23T05:54:43;14.10;99.90
52387;DHT22;38317;53.084;6.960;2022-07-23T05:57:08;14.20;99.90
52387;DHT22;38317;53.084;6.960;2022-07-23T05:59:34;14.30;99.90
52387;DHT22;38317;53.084;6.960;2022-07-23T06:02:00;14.40;99.90
52387;DHT22;38317;53.084;6.960;2022-07-23T06:04:26;14.50;99.90
52387;DHT22;38317;53.084;6.960;2022-07-23T06:06:51;14.60;99.90
52387;DHT22;38317;53.084;6.960;2022-07-23T06:09:17;14.70;99.90
52387;DHT22;38317;53.084;6.960;2022-07-23T06:11:43;14.80;99.90
52387;DHT22;38317;53.084;6.960;2022-07-23T06:14:09;14.80;99.90
52387;DHT22;38317;53.084;6.960;2022-07-23T06:16:35;14.90;99.90
52387;DHT22;38317;53.084;6.960;2022-07-23T06:19:01;15.00;99.90
52387;DHT22;38317;53.084;6.960;2022-07-23T06:21:26;15.10;99.90
52387;DHT22;38317;53.084;6.960;2022-07-23T06:23:52;15.10;99.90
52387;DHT22;38317;53.084;6.960;2022-07-23T06:26:18;15.20;99.90
52387;DHT22;38317;53.084;6.960;2022-07-23T06:28:43;15.30;99.90
52387;DHT22;38317;53.084;6.960;2022-07-23T06:31:09;15.40;99.90
52387;DHT22;38317;53.084;6.960;2022-07-23T06:33:35;15.40;99.90
52387;DHT22;38317;53.084;6.960;2022-07-23T06:36:00;15.50;99.90
52387;DHT22;38317;53.084;6.960;2022-07-23T06:38:26;15.50;99.90
52387;DHT22;38317;53.084;6.960;2022-07-23T06:40:52;15.50;99.90
52387;DHT22;38317;53.084;6.960;2022-07-23T06:43:18;15.60;99.90
52387;DHT22;38317;53.084;6.960;2022-07-23T06:45:44;15.60;99.90
52387;DHT22;38317;53.084;6.960;2022-07-23T06:48:09;15.70;99.90
52387;DHT22;38317;53.084;6.960;2022-07-23T06:50:35;15.70;99.90
52387;DHT22;38317;53.084;6.960;2022-07-23T06:53:01;15.60;99.90
52387;DHT22;38317;53.084;6.960;2022-07-23T06:55:27;15.70;99.90
52387;DHT22;38317;53.084;6.960;2022-07-23T06:57:52;15.70;99.90
52387;DHT22;38317;53.084;6.960;2022-07-23T07:00:18;15.80;99.90
52387;DHT22;38317;53.084;6.960;2022-07-23T07:02:44;15.90;99.90
52387;DHT22;38317;53.084;6.960;2022-07-23T07:05:10;16.00;99.90
52387;DHT22;38317;53.084;6.960;2022-07-23T07:07:36;16.10;99.90
52387;DHT22;38317;53.084;6.960;2022-07-23T07:10:05;16.10;99.90
52387;DHT22;38317;53.084;6.960;2022-07-23T07:12:31;16.20;99.90
52387;DHT22;38317;53.084;6.960;2022-07-23T07:14:56;16.30;99.90
52387;DHT22;38317;53.084;6.960;2022-07-23T07:17:22;16.40;99.90
52387;DHT22;38317;53.084;6.960;2022-07-23T07:19:48;16.50;99.90
52387;DHT22;38317;53.084;6.960;2022-07-23T07:22:14;16.50;99.90
52387;DHT22;38317;53.084;6.960;2022-07-23T07:24:40;16.60;99.90
52387;DHT22;38317;53.084;6.960;2022-07-23T07:27:06;16.70;99.90
52387;DHT22;38317;53.084;6.960;2022-07-23T07:29:31;16.70;99.90
52387;DHT22;38317;53.084;6.960;2022-07-23T07:31:57;16.80;99.90
52387;DHT22;38317;53.084;6.960;2022-07-23T07:34:23;16.80;99.90
52387;DHT22;38317;53.084;6.960;2022-07-23T07:36:49;16.90;99.90
52387;DHT22;38317;53.084;6.960;2022-07-23T07:39:15;17.00;99.90
52387;DHT22;38317;53.084;6.960;2022-07-23T07:41:41;17.10;99.90
52387;DHT22;38317;53.084;6.960;2022-07-23T07:44:06;17.20;99.90
52387;DHT22;38317;53.084;6.960;2022-07-23T07:46:32;17.20;99.90
52387;DHT22;38317;53.084;6.960;2022-07-23T07:48:58;17.30;99.90
52387;DHT22;38317;53.084;6.960;2022-07-23T07:51:24;17.40;99.90
52387;DHT22;38317;53.084;6.960;2022-07-23T07:53:50;17.60;99.90
52387;DHT22;38317;53.084;6.960;2022-07-23T07:56:16;17.80;99.90
52387;DHT22;38317;53.084;6.960;2022-07-23T07:58:42;17.80;99.90
52387;DHT22;38317;53.084;6.960;2022-07-23T08:01:07;17.90;99.90
52387;DHT22;38317;53.084;6.960;2022-07-23T08:03:33;17.90;99.90
52387;DHT22;38317;53.084;6.960;2022-07-23T08:05:59;18.00;99.90
52387;DHT22;38317;53.084;6.960;2022-07-23T08:08:25;18.00;99.90
52387;DHT22;38317;53.084;6.960;2022-07-23T08:10:50;18.10;99.90
52387;DHT22;38317;53.084;6.960;2022-07-23T08:13:16;18.30;99.90
52387;DHT22;38317;53.084;6.960;2022-07-23T08:15:43;18.50;99.90
52387;DHT22;38317;53.084;6.960;2022-07-23T08:18:09;18.60;99.90
52387;DHT22;38317;53.084;6.960;2022-07-23T08:20:35;18.70;99.90
52387;DHT22;38317;53.084;6.960;2022-07-23T08:23:06;18.80;99.90
52387;DHT22;38317;53.084;6.960;2022-07-23T08:25:34;19.10;99.90
52387;DHT22;38317;53.084;6.960;2022-07-23T08:28:02;19.50;99.90
52387;DHT22;38317;53.084;6.960;2022-07-23T08:30:29;19.80;99.90
52387;DHT22;38317;53.084;6.960;2022-07-23T08:33:00;20.20;99.90
52387;DHT22;38317;53.084;6.960;2022-07-23T08:35:37;20.50;99.90
52387;DHT22;38317;53.084;6.960;2022-07-23T08:38:08;20.80;99.90
52387;DHT22;38317;53.084;6.960;2022-07-23T08:40:36;21.00;99.90
52387;DHT22;38317;53.084;6.960;2022-07-23T08:43:08;21.20;99.90
52387;DHT22;38317;53.084;6.960;2022-07-23T08:45:43;21.50;99.90
52387;DHT22;38317;53.084;6.960;2022-07-23T08:48:12;21.60;99.90
52387;DHT22;38317;53.084;6.960;2022-07-23T08:50:42;21.50;99.90
52387;DHT22;38317;53.084;6.960;2022-07-23T08:53:09;21.50;99.90
52387;DHT22;38317;53.084;6.960;2022-07-23T08:55:35;21.50;99.90
52387;DHT22;38317;53.084;6.960;2022-07-23T08:58:01;21.30;99.90
52387;DHT22;38317;53.084;6.960;2022-07-23T09:00:28;21.10;99.90
52387;DHT22;38317;53.084;6.960;2022-07-23T09:02:54;20.80;99.90
52387;DHT22;38317;53.084;6.960;2022-07-23T09:05:20;20.50;99.90
52387;DHT22;38317;53.084;6.960;2022-07-23T09:08:12;20.40;99.90
52387;DHT22;38317;53.084;6.960;2022-07-23T09:13:35;20.20;99.90
52387;DHT22;38317;53.084;6.960;2022-07-23T09:18:31;19.90;99.90
52387;DHT22;38317;53.084;6.960;2022-07-23T09:23:59;19.90;99.90
52387;DHT22;38317;53.084;6.960;2022-07-23T09:31:58;20.80;99.90
52387;DHT22;38317;53.084;6.960;2022-07-23T09:34:31;20.90;99.90
52387;DHT22;38317;53.084;6.960;2022-07-23T09:37:16;20.80;99.90
52387;DHT22;38317;53.084;6.960;2022-07-23T09:39:43;20.60;99.90
52387;DHT22;38317;53.084;6.960;2022-07-23T09:42:16;20.50;99.90
52387;DHT22;38317;53.084;6.960;2022-07-23T09:44:46;20.30;99.90
52387;DHT22;38317;53.084;6.960;2022-07-23T09:47:11;20.20;99.90
52387;DHT22;38317;53.084;6.960;2022-07-23T09:49:37;20.40;99.90
52387;DHT22;38317;53.084;6.960;2022-07-23T09:52:03;20.80;99.90
52387;DHT22;38317;53.084;6.960;2022-07-23T09:57:01;21.30;99.90
52387;DHT22;38317;53.084;6.960;2022-07-23T09:59:34;21.70;99.90
52387;DHT22;38317;53.084;6.960;2022-07-23T10:02:01;22.20;99.90
52387;DHT22;38317;53.084;6.960;2022-07-23T10:04:29;22.40;99.90
52387;DHT22;38317;53.084;6.960;2022-07-23T10:06:58;22.70;99.90
52387;DHT22;38317;53.084;6.960;2022-07-23T10:09:36;22.60;99.90
52387;DHT22;38317;53.084;6.960;2022-07-23T10:12:05;22.60;99.90
52387;DHT22;38317;53.084;6.960;2022-07-23T10:14:34;22.50;99.90
52387;DHT22;38317;53.084;6.960;2022-07-23T10:17:03;22.60;99.90
52387;DHT22;38317;53.084;6.960;2022-07-23T10:19:30;22.70;99.90
52387;DHT22;38317;53.084;6.960;2022-07-23T10:22:00;22.80;99.90
52387;DHT22;38317;53.084;6.960;2022-07-23T10:30:20;22.40;99.90
52387;DHT22;38317;53.084;6.960;2022-07-23T10:32:56;22.30;99.90
52387;DHT22;38317;53.084;6.960;2022-07-23T10:35:42;22.10;99.90
52387;DHT22;38317;53.084;6.960;2022-07-23T10:38:37;21.80;99.90
52387;DHT22;38317;53.084;6.960;2022-07-23T10:41:05;21.50;99.90
52387;DHT22;38317;53.084;6.960;2022-07-23T10:43:31;21.30;99.90
52387;DHT22;38317;53.084;6.960;2022-07-23T10:46:25;21.30;99.90
52387;DHT22;38317;53.084;6.960;2022-07-23T10:49:29;21.40;99.90
52387;DHT22;38317;53.084;6.960;2022-07-23T10:54:56;21.60;99.90
52387;DHT22;38317;53.084;6.960;2022-07-23T10:57:27;21.60;99.90
52387;DHT22;38317;53.084;6.960;2022-07-23T11:02:42;21.60;99.90
52387;DHT22;38317;53.084;6.960;2022-07-23T11:05:10;21.60;99.90
52387;DHT22;38317;53.084;6.960;2022-07-23T11:13:45;21.80;99.90
52387;DHT22;38317;53.084;6.960;2022-07-23T11:16:14;21.60;99.90
52387;DHT22;38317;53.084;6.960;2022-07-23T11:32:14;21.70;99.90
52387;DHT22;38317;53.084;6.960;2022-07-23T11:34:45;21.80;99.90
52387;DHT22;38317;53.084;6.960;2022-07-23T11:37:40;21.80;99.90
52387;DHT22;38317;53.084;6.960;2022-07-23T11:40:11;21.90;99.90
52387;DHT22;38317;53.084;6.960;2022-07-23T11:42:39;22.00;99.90
52387;DHT22;38317;53.084;6.960;2022-07-23T11:45:07;21.90;99.90
52387;DHT22;38317;53.084;6.960;2022-07-23T11:47:34;21.80;99.90
52387;DHT22;38317;53.084;6.960;2022-07-23T11:50:02;21.70;99.90
52387;DHT22;38317;53.084;6.960;2022-07-23T11:52:29;21.60;99.90
52387;DHT22;38317;53.084;6.960;2022-07-23T11:55:01;21.70;99.90
52387;DHT22;38317;53.084;6.960;2022-07-23T11:57:28;21.70;99.90
52387;DHT22;38317;53.084;6.960;2022-07-23T12:00:32;21.90;99.90
52387;DHT22;38317;53.084;6.960;2022-07-23T12:02:53;22.00;99.90
52387;DHT22;38317;53.084;6.960;2022-07-23T12:05:23;21.90;99.90
52387;DHT22;38317;53.084;6.960;2022-07-23T12:07:54;21.80;99.90
52387;DHT22;38317;53.084;6.960;2022-07-23T12:10:24;21.80;99.90
52387;DHT22;38317;53.084;6.960;2022-07-23T12:13:11;22.10;99.90
52387;DHT22;38317;53.084;6.960;2022-07-23T12:15:43;22.30;99.90
52387;DHT22;38317;53.084;6.960;2022-07-23T12:18:11;22.40;99.90
52387;DHT22;38317;53.084;6.960;2022-07-23T12:20:42;22.50;99.90
52387;DHT22;38317;53.084;6.960;2022-07-23T12:23:12;22.50;99.90
52387;DHT22;38317;53.084;6.960;2022-07-23T12:25:40;22.60;99.90
52387;DHT22;38317;53.084;6.960;2022-07-23T12:28:17;22.60;99.90
52387;DHT22;38317;53.084;6.960;2022-07-23T12:30:46;22.60;99.90
52387;DHT22;38317;53.084;6.960;2022-07-23T12:33:14;22.60;99.90
52387;DHT22;38317;53.084;6.960;2022-07-23T12:35:43;22.70;99.90
52387;DHT22;38317;53.084;6.960;2022-07-23T12:38:12;22.80;99.90
52387;DHT22;38317;53.084;6.960;2022-07-23T12:40:47;22.70;99.90
52387;DHT22;38317;53.084;6.960;2022-07-23T12:43:24;22.70;99.90
52387;DHT22;38317;53.084;6.960;2022-07-23T12:45:57;22.60;99.90
52387;DHT22;38317;53.084;6.960;2022-07-23T12:48:27;22.70;99.90
52387;DHT22;38317;53.084;6.960;2022-07-23T12:50:58;22.70;99.90
52387;DHT22;38317;53.084;6.960;2022-07-23T12:53:31;22.60;99.90
52387;DHT22;38317;53.084;6.960;2022-07-23T12:58:25;22.90;99.90
52387;DHT22;38317;53.084;6.960;2022-07-23T13:00:58;23.00;99.90
52387;DHT22;38317;53.084;6.960;2022-07-23T13:03:26;22.90;99.90
52387;DHT22;38317;53.084;6.960;2022-07-23T13:05:53;22.90;99.90
52387;DHT22;38317;53.084;6.960;2022-07-23T13:08:19;22.70;99.90
52387;DHT22;38317;53.084;6.960;2022-07-23T13:10:45;22.60;99.90
52387;DHT22;38317;53.084;6.960;2022-07-23T13:13:14;22.40;99.90
52387;DHT22;38317;53.084;6.960;2022-07-23T13:15:41;22.60;99.90
52387;DHT22;38317;53.084;6.960;2022-07-23T13:18:07;22.90;99.90
52387;DHT22;38317;53.084;6.960;2022-07-23T13:20:33;23.00;99.90
52387;DHT22;38317;53.084;6.960;2022-07-23T13:23:00;23.00;99.90
52387;DHT22;38317;53.084;6.960;2022-07-23T13:25:26;22.90;99.90
52387;DHT22;38317;53.084;6.960;2022-07-23T13:27:52;22.80;99.90
52387;DHT22;38317;53.084;6.960;2022-07-23T13:30:18;22.80;99.90
52387;DHT22;38317;53.084;6.960;2022-07-23T13:32:44;22.70;99.90
52387;DHT22;38317;53.084;6.960;2022-07-23T13:35:09;22.60;99.90
52387;DHT22;38317;53.084;6.960;2022-07-23T13:37:35;22.60;99.90
52387;DHT22;38317;53.084;6.960;2022-07-23T13:40:02;22.60;99.90
52387;DHT22;38317;53.084;6.960;2022-07-23T13:42:28;22.70;99.90
52387;DHT22;38317;53.084;6.960;2022-07-23T13:44:53;22.70;99.90
52387;DHT22;38317;53.084;6.960;2022-07-23T13:47:19;22.80;99.90
52387;DHT22;38317;53.084;6.960;2022-07-23T13:49:45;22.70;99.90
52387;DHT22;38317;53.084;6.960;2022-07-23T13:52:11;22.70;99.90
52387;DHT22;38317;53.084;6.960;2022-07-23T13:54:37;22.70;99.90
52387;DHT22;38317;53.084;6.960;2022-07-23T13:57:03;22.70;99.90
52387;DHT22;38317;53.084;6.960;2022-07-23T13:59:28;22.80;99.90
52387;DHT22;38317;53.084;6.960;2022-07-23T14:01:54;22.80;99.90
52387;DHT22;38317;53.084;6.960;2022-07-23T14:04:21;23.00;99.90
52387;DHT22;38317;53.084;6.960;2022-07-23T14:06:46;23.20;99.90
52387;DHT22;38317;53.084;6.960;2022-07-23T14:09:12;23.40;99.90
52387;DHT22;38317;53.084;6.960;2022-07-23T14:11:38;23.60;99.90
52387;DHT22;38317;53.084;6.960;2022-07-23T14:14:04;23.80;99.90
52387;DHT22;38317;53.084;6.960;2022-07-23T14:16:30;23.80;99.90
52387;DHT22;38317;53.084;6.960;2022-07-23T14:18:56;23.80;99.90
52387;DHT22;38317;53.084;6.960;2022-07-23T14:21:22;23.80;99.90
52387;DHT22;38317;53.084;6.960;2022-07-23T14:23:48;23.60;99.90
52387;DHT22;38317;53.084;6.960;2022-07-23T14:26:13;23.50;99.90
52387;DHT22;38317;53.084;6.960;2022-07-23T14:28:39;23.40;99.90
52387;DHT22;38317;53.084;6.960;2022-07-23T14:31:05;23.30;99.90
52387;DHT22;38317;53.084;6.960;2022-07-23T14:33:31;23.20;99.90
52387;DHT22;38317;53.084;6.960;2022-07-23T14:35:57;23.10;99.90
52387;DHT22;38317;53.084;6.960;2022-07-23T14:38:24;23.20;99.90
52387;DHT22;38317;53.084;6.960;2022-07-23T14:40:50;23.30;99.90
52387;DHT22;38317;53.084;6.960;2022-07-23T14:43:16;23.50;99.90
52387;DHT22;38317;53.084;6.960;2022-07-23T14:45:41;23.70;99.90
52387;DHT22;38317;53.084;6.960;2022-07-23T14:48:07;23.80;99.90
52387;DHT22;38317;53.084;6.960;2022-07-23T14:50:33;23.90;99.90
52387;DHT22;38317;53.084;6.960;2022-07-23T14:52:59;24.10;99.90
52387;DHT22;38317;53.084;6.960;2022-07-23T14:55:25;24.20;99.90
52387;DHT22;38317;53.084;6.960;2022-07-23T14:57:51;24.20;99.90
52387;DHT22;38317;53.084;6.960;2022-07-23T15:00:17;24.20;99.90
52387;DHT22;38317;53.084;6.960;2022-07-23T15:02:43;24.20;99.90
52387;DHT22;38317;53.084;6.960;2022-07-23T15:05:09;24.10;99.90
52387;DHT22;38317;53.084;6.960;2022-07-23T15:07:36;24.00;99.90
52387;DHT22;38317;53.084;6.960;2022-07-23T15:10:01;23.90;99.90
52387;DHT22;38317;53.084;6.960;2022-07-23T15:12:28;23.90;99.90
52387;DHT22;38317;53.084;6.960;2022-07-23T15:14:53;24.10;99.90
52387;DHT22;38317;53.084;6.960;2022-07-23T15:17:19;24.20;99.90
52387;DHT22;38317;53.084;6.960;2022-07-23T15:19:45;24.20;99.90
52387;DHT22;38317;53.084;6.960;2022-07-23T15:22:10;24.10;99.90
52387;DHT22;38317;53.084;6.960;2022-07-23T15:24:36;24.20;99.90
52387;DHT22;38317;53.084;6.960;2022-07-23T15:27:02;24.30;99.90
52387;DHT22;38317;53.084;6.960;2022-07-23T15:29:28;24.50;99.90
52387;DHT22;38317;53.084;6.960;2022-07-23T15:31:53;24.50;99.10
52387;DHT22;38317;53.084;6.960;2022-07-23T15:34:19;24.40;98.80
52387;DHT22;38317;53.084;6.960;2022-07-23T15:36:45;24.20;99.10
52387;DHT22;38317;53.084;6.960;2022-07-23T15:39:11;24.00;99.40
52387;DHT22;38317;53.084;6.960;2022-07-23T15:41:36;23.90;99.70
52387;DHT22;38317;53.084;6.960;2022-07-23T15:44:02;23.90;99.80
52387;DHT22;38317;53.084;6.960;2022-07-23T15:46:28;23.80;99.90
52387;DHT22;38317;53.084;6.960;2022-07-23T15:48:54;23.60;99.90
52387;DHT22;38317;53.084;6.960;2022-07-23T15:51:20;23.40;99.90
52387;DHT22;38317;53.084;6.960;2022-07-23T15:53:45;23.30;99.90
52387;DHT22;38317;53.084;6.960;2022-07-23T15:56:11;23.40;99.90
52387;DHT22;38317;53.084;6.960;2022-07-23T15:58:38;23.60;99.90
52387;DHT22;38317;53.084;6.960;2022-07-23T16:01:04;23.50;99.90
52387;DHT22;38317;53.084;6.960;2022-07-23T16:03:36;23.40;99.90
52387;DHT22;38317;53.084;6.960;2022-07-23T16:06:03;23.40;99.90
52387;DHT22;38317;53.084;6.960;2022-07-23T16:08:29;23.30;99.90
52387;DHT22;38317;53.084;6.960;2022-07-23T16:10:55;23.20;99.90
52387;DHT22;38317;53.084;6.960;2022-07-23T16:13:27;23.10;99.90
52387;DHT22;38317;53.084;6.960;2022-07-23T16:15:53;23.00;99.90
52387;DHT22;38317;53.084;6.960;2022-07-23T16:18:20;22.90;99.90
52387;DHT22;38317;53.084;6.960;2022-07-23T16:20:48;23.00;99.90